createdAt,value
2023-03-29T00:01:00.857Z,63.56
2023-03-29T00:03:31.051Z,63.71
2023-03-29T00:06:04.319Z,63.85
2023-03-29T00:08:38.370Z,63.59
2023-03-29T00:11:06.368Z,63.54
2023-03-29T00:13:34.956Z,63.74
2023-03-29T00:16:02.985Z,63.59
2023-03-29T00:18:30.966Z,63.63
2023-03-29T00:21:00.775Z,63.59
2023-03-29T00:23:29.145Z,63.64
2023-03-29T00:25:57.760Z,63.75
2023-03-29T00:28:26.003Z,63.46
2023-03-29T00:31:03.897Z,63.64
2023-03-29T00:33:32.384Z,63.67
2023-03-29T00:36:00.409Z,63.78
2023-03-29T00:38:28.760Z,63.83
2023-03-29T00:40:56.737Z,63.48
2023-03-29T00:43:25.696Z,63.54
2023-03-29T00:45:54.515Z,63.53
2023-03-29T00:48:27.365Z,63.69
2023-03-29T00:51:08.170Z,63.69
2023-03-29T00:53:43.654Z,63.69
2023-03-29T00:56:27.834Z,63.64
2023-03-29T00:59:18.863Z,63.72
2023-03-29T01:01:58.814Z,63.47
2023-03-29T01:04:42.833Z,63.83
2023-03-29T01:07:14.324Z,63.80
2023-03-29T01:09:46.135Z,63.82
2023-03-29T01:12:22.601Z,63.70
2023-03-29T01:15:04.530Z,63.73
2023-03-29T01:17:33.371Z,64.11
2023-03-29T01:20:23.708Z,64.06
2023-03-29T01:23:17.257Z,64.07
2023-03-29T01:25:59.369Z,64.11
2023-03-29T01:28:37.285Z,64.17
2023-03-29T01:31:09.387Z,64.24
2023-03-29T01:33:52.898Z,64.56
2023-03-29T01:36:37.418Z,64.60
2023-03-29T01:39:07.509Z,64.74
2023-03-29T01:41:48.404Z,64.90
2023-03-29T01:44:56.576Z,64.92
2023-03-29T01:47:27.974Z,65.03
2023-03-29T01:50:14.669Z,65.14
2023-03-29T01:53:04.391Z,65.35
2023-03-29T01:55:36.149Z,65.66
2023-03-29T01:58:08.561Z,65.75
2023-03-29T02:00:38.596Z,65.71
2023-03-29T02:03:09.244Z,66.06
2023-03-29T02:05:39.865Z,65.75
2023-03-29T02:08:10.948Z,65.80
2023-03-29T02:10:39.505Z,65.91
2023-03-29T02:13:07.556Z,66.36
2023-03-29T02:15:35.598Z,65.94
2023-03-29T02:18:06.842Z,66.15
2023-03-29T02:20:43.337Z,66.38
2023-03-29T02:23:18.853Z,66.58
2023-03-29T02:25:50.508Z,66.54
2023-03-29T02:28:18.624Z,66.56
2023-03-29T02:30:53.718Z,66.76
2023-03-29T02:33:42.262Z,67.05
2023-03-29T02:36:17.990Z,67.29
2023-03-29T02:38:46.537Z,67.54
2023-03-29T02:41:16.997Z,67.83
2023-03-29T02:43:47.810Z,67.69
2023-03-29T02:46:18.389Z,68.02
2023-03-29T02:48:49.697Z,68.26
2023-03-29T02:51:26.791Z,68.50
2023-03-29T02:54:10.896Z,68.59
2023-03-29T02:56:43.696Z,68.69
2023-03-29T02:59:12.889Z,69.11
2023-03-29T03:01:45.414Z,69.19
2023-03-29T03:04:15.156Z,69.08
2023-03-29T03:06:43.236Z,69.14
2023-03-29T03:09:11.919Z,69.43
2023-03-29T03:11:42.416Z,69.68
2023-03-29T03:14:11.139Z,69.45
2023-03-29T03:16:39.298Z,69.81
2023-03-29T03:19:07.711Z,69.79
2023-03-29T03:21:37.865Z,69.79
2023-03-29T03:24:07.775Z,69.95
2023-03-29T03:26:38.320Z,70.06
2023-03-29T03:29:06.744Z,70.02
2023-03-29T03:32:04.485Z,70.23
2023-03-29T03:34:59.288Z,70.19
2023-03-29T03:37:28.096Z,70.48
2023-03-29T03:39:56.782Z,70.41
2023-03-29T03:42:28.833Z,70.60
2023-03-29T03:44:57.610Z,70.87
2023-03-29T03:47:55.112Z,71.12
2023-03-29T03:50:36.660Z,71.13
2023-03-29T03:53:04.772Z,71.33
2023-03-29T03:55:56.084Z,71.28
2023-03-29T03:58:28.437Z,71.74
2023-03-29T04:00:56.358Z,71.91
2023-03-29T04:03:37.723Z,71.73
2023-03-29T04:06:06.973Z,72.26
2023-03-29T04:08:54.946Z,71.97
2023-03-29T04:11:33.832Z,72.46
2023-03-29T04:14:02.820Z,72.60
2023-03-29T04:16:43.180Z,72.32
2023-03-29T04:19:30.502Z,72.31
2023-03-29T04:21:58.982Z,72.79
2023-03-29T04:24:27.259Z,72.80
2023-03-29T04:27:15.194Z,72.70
2023-03-29T04:29:45.066Z,72.71
2023-03-29T04:32:22.120Z,72.87
2023-03-29T04:35:08.245Z,72.78
2023-03-29T04:37:37.294Z,72.69
2023-03-29T04:40:09.454Z,72.88
2023-03-29T04:42:48.272Z,72.86
2023-03-29T04:45:19.515Z,72.90
2023-03-29T04:48:08.554Z,72.83
2023-03-29T04:50:37.708Z,73.10
2023-03-29T04:53:06.274Z,73.24
2023-03-29T04:55:34.470Z,73.09
2023-03-29T04:58:03.349Z,73.34
2023-03-29T05:00:35.185Z,73.33
2023-03-29T05:03:07.654Z,73.16
2023-03-29T05:05:38.701Z,73.60
2023-03-29T05:08:09.741Z,73.54
2023-03-29T05:11:02.195Z,73.83
2023-03-29T05:13:30.456Z,73.49
2023-03-29T05:16:00.758Z,73.58
2023-03-29T05:18:30.042Z,73.61
2023-03-29T05:20:58.833Z,73.57
2023-03-29T05:23:28.916Z,73.52
2023-03-29T05:26:20.407Z,73.36
2023-03-29T05:28:51.762Z,73.46
2023-03-29T05:31:20.227Z,73.54
2023-03-29T05:33:52.103Z,73.42
2023-03-29T05:36:21.665Z,73.25
2023-03-29T05:38:51.205Z,73.38
2023-03-29T05:41:20.432Z,73.23
2023-03-29T05:44:07.604Z,73.09
2023-03-29T05:46:36.229Z,73.06
2023-03-29T05:49:04.584Z,72.78
2023-03-29T05:51:52.232Z,72.95
2023-03-29T05:54:20.288Z,72.87
2023-03-29T05:56:48.534Z,72.90
2023-03-29T05:59:18.399Z,72.86
2023-03-29T06:01:47.587Z,72.87
2023-03-29T06:04:19.227Z,72.64
2023-03-29T06:07:02.450Z,72.74
2023-03-29T06:09:32.376Z,72.57
2023-03-29T06:12:04.242Z,72.60
2023-03-29T06:14:32.855Z,72.44
2023-03-29T06:17:15.975Z,72.56
2023-03-29T06:19:44.957Z,72.42
2023-03-29T06:22:14.886Z,72.28
2023-03-29T06:24:43.735Z,72.38
2023-03-29T06:27:18.285Z,72.38
2023-03-29T06:29:48.280Z,72.05
2023-03-29T06:32:17.157Z,72.11
2023-03-29T06:34:51.472Z,72.07
2023-03-29T06:37:44.470Z,71.74
2023-03-29T06:40:19.279Z,71.73
2023-03-29T06:42:48.867Z,71.44
2023-03-29T06:45:38.974Z,71.23
2023-03-29T06:48:12.445Z,71.28
2023-03-29T06:50:42.088Z,70.94
2023-03-29T06:53:11.738Z,70.91
2023-03-29T06:55:41.375Z,70.74
2023-03-29T06:58:24.015Z,70.73
2023-03-29T07:00:53.908Z,70.58
2023-03-29T07:03:31.619Z,70.08
2023-03-29T07:06:04.003Z,69.74
2023-03-29T07:08:35.059Z,69.69
2023-03-29T07:11:07.179Z,69.75
2023-03-29T07:13:49.234Z,69.20
2023-03-29T07:16:19.735Z,69.10
2023-03-29T07:18:58.718Z,69.16
2023-03-29T07:21:50.455Z,69.34
2023-03-29T07:24:20.245Z,69.11
2023-03-29T07:27:03.433Z,68.71
2023-03-29T07:29:32.674Z,68.62
2023-03-29T07:32:01.010Z,68.49
2023-03-29T07:34:51.649Z,68.04
2023-03-29T07:37:32.930Z,67.94
2023-03-29T07:40:04.063Z,67.73
2023-03-29T07:42:47.940Z,67.56
2023-03-29T07:45:26.879Z,67.19
2023-03-29T07:48:01.267Z,66.57
2023-03-29T07:50:39.041Z,66.06
2023-03-29T07:53:07.359Z,65.67
2023-03-29T07:55:35.661Z,65.14
2023-03-29T07:58:12.411Z,64.83
2023-03-29T08:00:41.423Z,64.15
2023-03-29T08:03:28.865Z,63.65
2023-03-29T08:05:56.963Z,62.86
2023-03-29T08:08:25.270Z,62.35
2023-03-29T08:10:57.952Z,62.25
2023-03-29T08:13:42.094Z,61.51
2023-03-29T08:16:42.197Z,60.65
2023-03-29T08:19:14.232Z,59.95
2023-03-29T08:21:51.735Z,59.46
2023-03-29T08:24:21.077Z,58.54
2023-03-29T08:26:54.380Z,57.88
2023-03-29T08:29:22.475Z,57.50
2023-03-29T08:31:50.394Z,57.15
2023-03-29T08:34:18.611Z,56.94
2023-03-29T08:37:05.327Z,56.42
2023-03-29T08:39:41.208Z,55.88
2023-03-29T08:43:02.092Z,55.46
2023-03-29T08:46:09.261Z,54.61
2023-03-29T08:48:46.027Z,54.20
2023-03-29T08:51:23.729Z,53.35
2023-03-29T08:54:10.680Z,52.42
2023-03-29T08:57:17.106Z,51.63
2023-03-29T08:59:52.400Z,50.78
2023-03-29T09:02:26.353Z,50.19
2023-03-29T09:05:07.764Z,50.02
2023-03-29T09:07:53.415Z,49.49
2023-03-29T09:10:39.693Z,48.76
2023-03-29T09:13:22.932Z,48.03
2023-03-29T09:15:57.066Z,47.83
2023-03-29T09:18:47.857Z,46.96
2023-03-29T09:21:49.488Z,46.97
2023-03-29T09:24:37.559Z,46.66
2023-03-29T09:27:32.489Z,45.50
2023-03-29T09:30:17.044Z,45.12
2023-03-29T09:33:10.694Z,43.99
2023-03-29T09:36:01.513Z,43.46
2023-03-29T09:38:32.107Z,43.22
2023-03-29T09:41:21.374Z,42.62
2023-03-29T09:43:51.984Z,42.60
2023-03-29T09:46:28.360Z,42.44
2023-03-29T09:48:57.241Z,42.21
2023-03-29T09:51:30.051Z,41.30
2023-03-29T09:54:00.223Z,41.16
2023-03-29T09:56:46.699Z,40.29
2023-03-29T09:59:17.593Z,40.57
2023-03-29T10:01:45.893Z,40.21
2023-03-29T10:04:15.584Z,39.65
2023-03-29T10:06:50.400Z,39.25
2023-03-29T10:09:24.381Z,38.57
2023-03-29T10:12:02.280Z,38.88
2023-03-29T10:14:35.695Z,38.43
2023-03-29T10:17:11.700Z,38.11
2023-03-29T10:19:49.053Z,37.77
2023-03-29T10:22:23.194Z,36.72
2023-03-29T10:24:53.842Z,35.89
2023-03-29T10:27:27.971Z,37.09
2023-03-29T10:29:58.505Z,36.71
2023-03-29T10:32:38.542Z,37.44
2023-03-29T10:35:29.595Z,37.42
2023-03-29T10:37:59.510Z,37.60
2023-03-29T10:40:29.033Z,37.89
2023-03-29T10:43:11.383Z,38.17
2023-03-29T10:45:40.106Z,38.46
2023-03-29T10:48:16.108Z,38.78
2023-03-29T10:50:49.852Z,39.12
2023-03-29T10:53:26.284Z,39.18
2023-03-29T10:56:07.805Z,39.95
2023-03-29T10:58:44.830Z,39.59
2023-03-29T11:01:21.822Z,39.21
2023-03-29T11:04:08.081Z,38.31
2023-03-29T11:06:52.646Z,38.01
2023-03-29T11:09:39.430Z,38.89
2023-03-29T11:12:24.190Z,38.84
2023-03-29T11:15:04.735Z,38.70
2023-03-29T11:17:42.960Z,38.30
2023-03-29T11:20:22.422Z,38.38
2023-03-29T11:23:19.504Z,38.55
2023-03-29T11:26:09.814Z,38.69
2023-03-29T11:29:02.711Z,38.56
2023-03-29T11:31:40.956Z,37.94
2023-03-29T11:34:26.897Z,37.16
2023-03-29T11:37:07.763Z,37.35
2023-03-29T11:39:41.788Z,37.71
2023-03-29T11:42:21.501Z,37.84
2023-03-29T11:44:55.028Z,37.70
2023-03-29T11:47:29.068Z,37.88
2023-03-29T11:50:06.551Z,36.66
2023-03-29T11:52:40.900Z,36.30
2023-03-29T11:55:15.380Z,36.59
2023-03-29T11:58:00.050Z,36.06
2023-03-29T12:00:35.444Z,36.53
2023-03-29T12:03:22.257Z,36.73
2023-03-29T12:05:56.814Z,36.91
2023-03-29T12:08:31.311Z,37.06
2023-03-29T12:11:09.274Z,36.95
2023-03-29T12:13:43.910Z,37.13
2023-03-29T12:16:27.890Z,36.93
2023-03-29T12:18:59.006Z,36.34
2023-03-29T12:21:29.821Z,36.26
2023-03-29T12:23:59.368Z,36.38
2023-03-29T12:26:56.926Z,36.07
2023-03-29T12:29:44.820Z,36.09
2023-03-29T12:32:47.112Z,36.67
2023-03-29T12:36:03.265Z,36.47
2023-03-29T12:38:52.799Z,35.96
2023-03-29T12:41:41.750Z,35.77
2023-03-29T12:44:28.842Z,35.83
2023-03-29T12:47:02.280Z,35.86
2023-03-29T12:49:34.539Z,35.85
2023-03-29T12:52:22.110Z,36.12
2023-03-29T12:55:00.782Z,36.01
2023-03-29T13:02:00.847Z,35.82
2023-03-29T13:04:49.950Z,36.01
2023-03-29T13:07:28.110Z,35.47
2023-03-29T13:09:58.824Z,35.31
2023-03-29T13:12:44.728Z,35.40
2023-03-29T13:15:36.951Z,35.17
2023-03-29T13:18:36.928Z,35.06
2023-03-29T13:21:34.904Z,34.65
2023-03-29T13:24:46.971Z,34.64
2023-03-29T13:27:30.934Z,35.16
2023-03-29T13:30:25.154Z,35.17
2023-03-29T13:37:37.470Z,35.04
2023-03-29T13:40:34.961Z,35.29
2023-03-29T13:43:21.256Z,34.83
2023-03-29T13:46:22.971Z,34.97
2023-03-29T13:49:00.965Z,34.94
2023-03-29T13:51:40.526Z,35.04
2023-03-29T13:54:39.974Z,35.04
2023-03-29T13:57:33.003Z,34.55
2023-03-29T14:04:24.986Z,34.35
2023-03-29T14:06:57.969Z,34.93
2023-03-29T14:09:33.012Z,34.70
2023-03-29T14:12:05.973Z,34.49
2023-03-29T14:14:45.290Z,34.46
2023-03-29T14:24:55.018Z,34.48
2023-03-29T14:27:23.080Z,34.31
2023-03-29T14:29:52.584Z,34.50
2023-03-29T14:32:29.570Z,35.17
2023-03-29T14:34:58.248Z,34.72
2023-03-29T14:37:28.718Z,34.84
2023-03-29T14:39:58.996Z,34.72
2023-03-29T14:42:29.222Z,34.96
2023-03-29T14:45:04.271Z,35.10
2023-03-29T14:47:34.000Z,35.31
2023-03-29T14:50:04.052Z,35.24
2023-03-29T14:52:32.544Z,35.32
2023-03-29T14:55:02.420Z,35.31
2023-03-29T14:57:36.730Z,35.07
2023-03-29T15:00:22.233Z,34.86
2023-03-29T15:02:55.499Z,34.59
2023-03-29T15:05:37.832Z,34.90
2023-03-29T15:08:10.102Z,35.09
2023-03-29T15:10:39.039Z,35.05
2023-03-29T15:13:08.636Z,34.91
2023-03-29T15:15:39.195Z,34.83
2023-03-29T15:18:10.160Z,34.71
2023-03-29T15:20:40.498Z,34.61
2023-03-29T15:23:14.744Z,34.85
2023-03-29T15:25:58.894Z,35.18
2023-03-29T15:28:35.053Z,35.67
2023-03-29T15:31:10.987Z,35.27
2023-03-29T15:33:41.787Z,34.92
2023-03-29T15:36:12.568Z,34.87
2023-03-29T15:38:45.100Z,35.22
2023-03-29T15:41:14.805Z,35.57
2023-03-29T15:43:43.488Z,35.73
2023-03-29T15:46:14.074Z,35.62
2023-03-29T15:48:42.666Z,35.60
2023-03-29T15:51:15.242Z,35.74
2023-03-29T15:53:43.210Z,35.88
2023-03-29T15:56:18.312Z,36.06
2023-03-29T15:58:47.851Z,35.86
2023-03-29T16:01:36.705Z,35.52
2023-03-29T16:04:14.127Z,35.12
2023-03-29T16:06:43.816Z,35.01
2023-03-29T16:09:14.691Z,35.08
2023-03-29T16:11:45.455Z,35.26
2023-03-29T16:14:30.030Z,35.09
2023-03-29T16:17:00.163Z,35.60
2023-03-29T16:19:31.239Z,35.75
2023-03-29T16:22:02.490Z,35.71
2023-03-29T16:24:32.273Z,35.91
2023-03-29T16:27:01.655Z,36.16
2023-03-29T16:29:30.536Z,36.36
2023-03-29T16:31:58.785Z,36.79
2023-03-29T16:34:26.928Z,36.67
2023-03-29T16:36:55.076Z,36.78
2023-03-29T16:39:23.146Z,37.42
2023-03-29T16:41:51.409Z,37.19
2023-03-29T16:44:23.609Z,37.30
2023-03-29T16:46:58.064Z,37.40
2023-03-29T16:49:26.384Z,37.85
2023-03-29T16:51:54.596Z,38.02
2023-03-29T16:54:25.968Z,38.75
2023-03-29T16:56:54.285Z,38.67
2023-03-29T16:59:22.476Z,38.61
2023-03-29T17:01:50.850Z,39.06
2023-03-29T17:04:19.111Z,39.46
2023-03-29T17:06:47.509Z,39.10
2023-03-29T17:09:17.012Z,39.12
2023-03-29T17:11:45.764Z,39.66
2023-03-29T17:14:14.161Z,40.10
2023-03-29T17:16:42.338Z,40.53
2023-03-29T17:19:10.496Z,40.82
2023-03-29T17:21:38.596Z,41.19
2023-03-29T17:24:07.260Z,41.26
2023-03-29T17:26:36.208Z,41.45
2023-03-29T17:29:05.385Z,41.70
2023-03-29T17:31:36.855Z,41.94
2023-03-29T17:34:04.781Z,42.35
2023-03-29T17:36:33.927Z,43.03
2023-03-29T17:39:02.869Z,43.51
2023-03-29T17:41:31.323Z,43.65
2023-03-29T17:43:59.833Z,43.63
2023-03-29T17:46:28.443Z,43.83
2023-03-29T17:48:59.330Z,44.23
2023-03-29T17:51:28.217Z,44.44
2023-03-29T17:53:57.328Z,44.43
2023-03-29T17:56:26.749Z,44.64
2023-03-29T17:58:56.326Z,44.97
2023-03-29T18:01:24.455Z,44.83
2023-03-29T18:03:52.602Z,44.90
2023-03-29T18:06:21.187Z,45.58
2023-03-29T18:08:49.431Z,45.60
2023-03-29T18:11:22.617Z,45.89
2023-03-29T18:13:51.885Z,45.88
2023-03-29T18:16:23.566Z,45.73
2023-03-29T18:18:52.098Z,46.60
2023-03-29T18:21:20.262Z,46.56
2023-03-29T18:23:50.140Z,46.50
2023-03-29T18:26:18.434Z,46.56
2023-03-29T18:28:47.470Z,46.35
2023-03-29T18:31:16.301Z,46.28
2023-03-29T18:33:44.698Z,46.35
2023-03-29T18:36:13.884Z,46.19
2023-03-29T18:38:44.077Z,46.26
2023-03-29T18:41:14.078Z,46.40
2023-03-29T18:43:43.471Z,46.22
2023-03-29T18:46:11.549Z,46.37
2023-03-29T18:48:40.079Z,46.72
2023-03-29T18:51:10.366Z,47.07
2023-03-29T18:53:41.611Z,47.09
2023-03-29T18:56:09.722Z,47.42
2023-03-29T18:58:37.717Z,47.15
2023-03-29T19:01:07.100Z,47.67
2023-03-29T19:03:35.870Z,47.54
2023-03-29T19:06:04.909Z,47.78
2023-03-29T19:08:34.486Z,47.96
2023-03-29T19:11:04.912Z,47.78
2023-03-29T19:13:33.994Z,47.97
2023-03-29T19:16:03.048Z,48.38
2023-03-29T19:18:31.690Z,48.73
2023-03-29T19:20:59.891Z,49.09
2023-03-29T19:23:28.541Z,48.78
2023-03-29T19:26:00.296Z,48.85
2023-03-29T19:28:29.500Z,48.48
2023-03-29T19:30:59.990Z,48.75
2023-03-29T19:33:29.531Z,49.12
2023-03-29T19:35:57.849Z,49.08
2023-03-29T19:38:41.549Z,48.90
2023-03-29T19:41:11.682Z,49.36
2023-03-29T19:43:39.736Z,49.63
2023-03-29T19:46:10.984Z,49.65
2023-03-29T19:48:39.940Z,49.75
2023-03-29T19:51:09.077Z,49.75
2023-03-29T19:53:38.688Z,50.07
2023-03-29T19:56:10.974Z,50.00
2023-03-29T19:58:39.430Z,50.42
2023-03-29T20:01:07.581Z,49.84
2023-03-29T20:03:36.305Z,49.91
2023-03-29T20:06:04.858Z,50.03
2023-03-29T20:08:33.202Z,50.18
2023-03-29T20:11:07.375Z,50.33
2023-03-29T20:13:38.908Z,50.22
2023-03-29T20:16:10.664Z,50.77
2023-03-29T20:18:39.561Z,50.85
2023-03-29T20:21:09.460Z,51.16
2023-03-29T20:23:38.044Z,50.84
2023-03-29T20:26:07.473Z,51.28
2023-03-29T20:28:38.016Z,51.39
2023-03-29T20:31:10.657Z,51.23
2023-03-29T20:33:39.537Z,51.28
2023-03-29T20:36:08.832Z,51.12
2023-03-29T20:38:37.762Z,51.84
2023-03-29T20:41:09.570Z,51.34
2023-03-29T20:43:38.048Z,51.30
2023-03-29T20:46:14.802Z,51.61
2023-03-29T20:48:53.012Z,51.54
2023-03-29T20:51:22.782Z,51.70
2023-03-29T20:53:50.945Z,51.70
2023-03-29T20:56:19.473Z,51.63
2023-03-29T20:58:47.727Z,51.76
2023-03-29T21:01:15.803Z,51.62
2023-03-29T21:03:43.934Z,51.38
2023-03-29T21:06:14.498Z,51.83
2023-03-29T21:08:46.062Z,51.94
2023-03-29T21:11:15.534Z,52.12
2023-03-29T21:13:44.281Z,52.19
2023-03-29T21:16:13.360Z,52.69
2023-03-29T21:18:41.890Z,52.33
2023-03-29T21:21:12.112Z,52.53
2023-03-29T21:23:40.216Z,52.61
2023-03-29T21:26:08.911Z,53.07
2023-03-29T21:28:37.877Z,52.74
2023-03-29T21:31:06.841Z,52.93
2023-03-29T21:33:36.404Z,53.03
2023-03-29T21:36:05.190Z,53.11
2023-03-29T21:38:33.234Z,53.63
2023-03-29T21:41:02.722Z,53.75
2023-03-29T21:43:31.220Z,53.87
2023-03-29T21:45:59.479Z,53.68
2023-03-29T21:48:27.564Z,53.75
2023-03-29T21:50:55.493Z,54.05
2023-03-29T21:53:24.790Z,54.47
2023-03-29T21:55:52.994Z,54.21
2023-03-29T21:58:21.474Z,54.52
2023-03-29T22:00:49.557Z,54.45
2023-03-29T22:03:17.716Z,54.65
2023-03-29T22:05:56.754Z,54.77
2023-03-29T22:08:26.554Z,54.80
2023-03-29T22:10:57.060Z,54.89
2023-03-29T22:13:27.444Z,55.22
2023-03-29T22:16:00.448Z,55.60
2023-03-29T22:18:30.310Z,55.62
2023-03-29T22:20:58.202Z,55.86
2023-03-29T22:23:26.261Z,55.94
2023-03-29T22:25:54.233Z,55.83
2023-03-29T22:28:22.636Z,56.08
2023-03-29T22:30:50.572Z,55.96
2023-03-29T22:33:18.532Z,55.88
2023-03-29T22:35:46.678Z,55.96
2023-03-29T22:38:14.671Z,56.00
2023-03-29T22:40:42.641Z,56.13
2023-03-29T22:43:10.645Z,56.07
2023-03-29T22:45:38.818Z,56.31
2023-03-29T22:48:06.864Z,56.31
2023-03-29T22:50:34.872Z,56.49
2023-03-29T22:53:02.906Z,56.12
2023-03-29T22:55:30.871Z,56.41
2023-03-29T22:57:59.086Z,56.71
2023-03-29T23:00:27.308Z,56.65
2023-03-29T23:02:55.429Z,56.21
2023-03-29T23:05:23.512Z,55.86
2023-03-29T23:07:51.626Z,55.99
2023-03-29T23:10:19.901Z,55.85
2023-03-29T23:12:49.821Z,55.84
2023-03-29T23:15:17.899Z,56.06
2023-03-29T23:17:45.876Z,56.22
2023-03-29T23:20:14.129Z,55.52
2023-03-29T23:22:42.098Z,55.68
2023-03-29T23:25:10.285Z,55.84
2023-03-29T23:27:38.450Z,56.04
2023-03-29T23:30:08.268Z,55.93
2023-03-29T23:32:36.257Z,56.29
2023-03-29T23:35:04.715Z,55.55
2023-03-29T23:37:32.878Z,55.49
2023-03-29T23:40:00.857Z,56.24
2023-03-29T23:42:29.535Z,56.12
2023-03-29T23:44:58.119Z,56.04
2023-03-29T23:47:27.146Z,55.97
2023-03-29T23:49:55.183Z,56.06
2023-03-29T23:52:23.456Z,56.11
2023-03-29T23:54:51.431Z,55.88
2023-03-29T23:57:20.341Z,55.93
2023-03-29T23:59:52.783Z,56.27
